Kamysin, Russia
Current Conditions -  °F | °C
As of 11:30 PM on Friday 19 Dec 2014 (Local Time) from URWW Reporting Station
Moderate Fog Moderate Fog  
Wind Chill: 27°   Ceiling: 200
Heat Index: 34°   Visibility: 0.28mi
Dew Point: 34°   Wind: 9mph
Humidity: 100%   Direction: 280°W
Pressure: 30.03"   Gusts: NA
Location:  50.07°N, 45.37°E
Report Text: URWW 192030Z 28004MPS 0450 R29/1200U FG VV002 01/01 Q1017 NOSIGRMK QBB070 OBST OBSC 29290253
Loading
Personal Weather Stations






























Interactive Weather Map New forecast layout! Learn more

10-Day Weather Forecast

Advertisements
Track Severe Weather on mobile